createdAt,value
2023-05-09T00:00:05.494Z,54.63
2023-05-09T00:01:19.213Z,54.64
2023-05-09T00:02:32.912Z,54.55
2023-05-09T00:03:40.916Z,54.56
2023-05-09T00:05:02.224Z,55.06
2023-05-09T00:06:07.848Z,55.13
2023-05-09T00:07:30.824Z,55.18
2023-05-09T00:08:35.329Z,55.22
2023-05-09T00:09:58.058Z,55.73
2023-05-09T00:11:10.345Z,55.91
2023-05-09T00:12:21.458Z,55.97
2023-05-09T00:13:30.350Z,55.86
2023-05-09T00:14:36.355Z,55.61
2023-05-09T00:16:03.449Z,55.75
2023-05-09T00:17:30.065Z,56.33
2023-05-09T00:19:07.534Z,56.27
2023-05-09T00:20:12.345Z,56.15
2023-05-09T00:21:14.072Z,55.89
2023-05-09T00:22:17.250Z,56.26
2023-05-09T00:23:18.795Z,56.35
2023-05-09T00:24:20.339Z,56.19
2023-05-09T00:25:21.829Z,55.67
2023-05-09T00:26:23.839Z,55.57
2023-05-09T00:27:25.530Z,55.29
2023-05-09T00:28:27.568Z,55.33
2023-05-09T00:29:31.173Z,55.39
2023-05-09T00:30:32.656Z,55.28
2023-05-09T00:31:34.268Z,55.21
2023-05-09T00:32:36.410Z,55.40
2023-05-09T00:33:37.908Z,55.08
2023-05-09T00:34:39.487Z,55.54
2023-05-09T00:35:41.101Z,55.26
2023-05-09T00:36:42.635Z,55.03
2023-05-09T00:37:44.299Z,55.34
2023-05-09T00:38:45.901Z,55.43
2023-05-09T00:39:48.441Z,55.12
2023-05-09T00:40:50.297Z,54.94
2023-05-09T00:41:52.650Z,54.97
2023-05-09T00:42:58.340Z,54.96
2023-05-09T00:43:59.887Z,55.15
2023-05-09T00:45:02.041Z,54.84
2023-05-09T00:46:04.529Z,55.02
2023-05-09T00:47:07.462Z,54.77
2023-05-09T00:48:09.020Z,54.94
2023-05-09T00:49:12.423Z,55.16
2023-05-09T00:50:14.882Z,55.25
2023-05-09T00:51:17.033Z,55.18
2023-05-09T00:52:23.540Z,55.40
2023-05-09T00:53:25.455Z,55.59
2023-05-09T00:54:26.988Z,55.76
2023-05-09T00:55:28.573Z,56.00
2023-05-09T00:56:31.410Z,56.22
2023-05-09T00:57:33.385Z,56.07
2023-05-09T00:58:35.069Z,56.34
2023-05-09T00:59:36.797Z,56.43
2023-05-09T01:00:38.330Z,56.64
2023-05-09T01:01:39.885Z,56.38
2023-05-09T01:02:43.249Z,56.28
2023-05-09T01:03:45.764Z,56.65
2023-05-09T01:04:47.647Z,56.69
2023-05-09T01:06:23.963Z,56.48
2023-05-09T01:07:35.550Z,56.24
2023-05-09T01:08:44.454Z,56.28
2023-05-09T01:10:04.916Z,55.91
2023-05-09T01:11:31.531Z,55.77
2023-05-09T01:12:56.193Z,56.04
2023-05-09T01:14:19.558Z,55.99
2023-05-09T01:15:23.848Z,56.04
2023-05-09T01:16:35.169Z,55.60
2023-05-09T01:18:17.399Z,56.03
2023-05-09T01:19:41.604Z,55.99
2023-05-09T01:20:46.631Z,55.67
2023-05-09T01:21:53.036Z,55.67
2023-05-09T01:23:31.688Z,55.82
2023-05-09T01:24:42.201Z,56.05
2023-05-09T01:25:54.970Z,56.06
2023-05-09T01:27:20.747Z,55.96
2023-05-09T01:29:04.085Z,55.87
2023-05-09T01:30:08.056Z,55.89
2023-05-09T01:31:09.983Z,55.86
2023-05-09T01:32:17.846Z,55.65
2023-05-09T01:33:23.254Z,56.07
2023-05-09T01:34:27.502Z,56.51
2023-05-09T01:35:32.356Z,56.30
2023-05-09T01:36:37.109Z,56.82
2023-05-09T01:37:43.017Z,56.65
2023-05-09T01:38:48.716Z,56.37
2023-05-09T01:39:56.148Z,56.14
2023-05-09T01:40:59.968Z,56.26
2023-05-09T01:42:04.771Z,56.04
2023-05-09T01:43:10.303Z,56.17
2023-05-09T01:44:13.935Z,55.85
2023-05-09T01:45:16.900Z,55.47
2023-05-09T01:46:20.618Z,55.53
2023-05-09T01:47:23.481Z,55.64
2023-05-09T01:48:26.980Z,55.48
2023-05-09T01:49:33.635Z,55.14
2023-05-09T01:50:36.142Z,55.43
2023-05-09T01:51:39.579Z,55.07
2023-05-09T01:52:43.473Z,55.22
2023-05-09T01:53:46.642Z,55.72
2023-05-09T01:54:50.992Z,55.42
2023-05-09T01:55:52.969Z,55.33
2023-05-09T01:56:56.208Z,55.30
2023-05-09T01:57:59.702Z,55.42
2023-05-09T01:59:02.818Z,55.49
2023-05-09T02:00:07.985Z,55.61
2023-05-09T02:01:10.622Z,55.72
2023-05-09T02:02:13.474Z,55.55
2023-05-09T02:03:15.382Z,55.51
2023-05-09T02:04:19.030Z,55.47
2023-05-09T02:05:22.736Z,55.43
2023-05-09T02:06:24.786Z,55.65
2023-05-09T02:07:28.560Z,55.63
2023-05-09T02:08:31.480Z,55.81
2023-05-09T02:09:32.988Z,55.85
2023-05-09T02:10:35.895Z,55.85
2023-05-09T02:11:37.501Z,55.74
2023-05-09T02:12:40.363Z,55.67
2023-05-09T02:13:41.894Z,55.78
2023-05-09T02:14:43.706Z,55.83
2023-05-09T02:15:45.974Z,55.61
2023-05-09T02:16:48.050Z,55.86
2023-05-09T02:17:52.306Z,55.94
2023-05-09T02:18:54.024Z,56.14
2023-05-09T02:19:55.464Z,56.18
2023-05-09T02:20:56.968Z,56.45
2023-05-09T02:21:58.518Z,56.21
2023-05-09T02:23:00.445Z,56.21
2023-05-09T02:24:02.620Z,56.45
2023-05-09T02:25:05.308Z,56.30
2023-05-09T02:26:07.278Z,56.53
2023-05-09T02:27:10.543Z,56.15
2023-05-09T02:28:13.788Z,56.35
2023-05-09T02:29:19.429Z,56.62
2023-05-09T02:30:25.323Z,56.71
2023-05-09T02:31:29.864Z,56.41
2023-05-09T02:32:34.817Z,56.31
2023-05-09T02:33:39.389Z,56.28
2023-05-09T02:34:42.759Z,56.17
2023-05-09T02:35:46.437Z,56.46
2023-05-09T02:36:48.256Z,56.46
2023-05-09T02:37:50.002Z,56.67
2023-05-09T02:38:51.646Z,56.33
2023-05-09T02:39:53.743Z,56.55
2023-05-09T02:40:55.809Z,56.46
2023-05-09T02:41:57.623Z,56.81
2023-05-09T02:42:59.147Z,56.60
2023-05-09T02:44:00.805Z,56.63
2023-05-09T02:45:02.701Z,56.56
2023-05-09T02:46:04.482Z,56.54
2023-05-09T02:47:07.523Z,56.96
2023-05-09T02:48:09.470Z,56.56
2023-05-09T02:49:14.708Z,56.41
2023-05-09T02:50:24.538Z,56.61
2023-05-09T02:51:26.157Z,56.55
2023-05-09T02:52:27.681Z,57.03
2023-05-09T02:53:29.678Z,56.87
2023-05-09T02:54:31.173Z,56.91
2023-05-09T02:55:32.675Z,57.01
2023-05-09T02:56:34.157Z,57.01
2023-05-09T02:57:36.288Z,56.97
2023-05-09T02:58:38.760Z,56.98
2023-05-09T02:59:40.322Z,57.13
2023-05-09T03:00:42.668Z,56.87
2023-05-09T03:01:44.351Z,56.93
2023-05-09T03:02:45.871Z,56.96
2023-05-09T03:03:48.035Z,56.77
2023-05-09T03:04:50.229Z,56.78
2023-05-09T03:05:51.773Z,56.95
2023-05-09T03:06:53.625Z,56.90
2023-05-09T03:07:55.122Z,56.78
2023-05-09T03:08:56.785Z,57.03
2023-05-09T03:09:58.447Z,56.93
2023-05-09T03:10:59.911Z,56.73
2023-05-09T03:12:01.473Z,56.95
2023-05-09T03:13:05.216Z,57.15
2023-05-09T03:14:08.540Z,57.26
2023-05-09T03:15:10.338Z,57.24
2023-05-09T03:16:14.851Z,57.07
2023-05-09T03:17:21.415Z,57.09
2023-05-09T03:18:23.041Z,57.22
2023-05-09T03:19:25.294Z,56.45
2023-05-09T03:20:27.530Z,56.48
2023-05-09T03:21:29.139Z,56.61
2023-05-09T03:22:30.853Z,57.00
2023-05-09T03:23:32.501Z,56.95
2023-05-09T03:24:34.111Z,56.87
2023-05-09T03:25:35.827Z,57.14
2023-05-09T03:26:37.505Z,57.22
2023-05-09T03:27:39.037Z,57.55
2023-05-09T03:28:40.771Z,57.13
2023-05-09T03:29:42.745Z,57.04
2023-05-09T03:30:44.247Z,57.28
2023-05-09T03:31:46.344Z,57.17
2023-05-09T03:32:48.074Z,57.54
2023-05-09T03:33:49.750Z,57.29
2023-05-09T03:34:51.229Z,57.52
2023-05-09T03:35:53.900Z,57.74
2023-05-09T03:36:55.542Z,57.68
2023-05-09T03:37:57.092Z,57.90
2023-05-09T03:38:58.655Z,57.53
2023-05-09T03:40:00.167Z,58.18
2023-05-09T03:41:01.707Z,57.96
2023-05-09T03:42:04.580Z,58.26
2023-05-09T03:43:06.465Z,58.40
2023-05-09T03:44:08.138Z,58.55
2023-05-09T03:45:10.343Z,58.32
2023-05-09T03:46:12.019Z,58.02
2023-05-09T03:47:16.480Z,58.00
2023-05-09T03:48:18.020Z,58.11
2023-05-09T03:49:19.477Z,57.79
2023-05-09T03:50:21.001Z,57.91
2023-05-09T03:51:22.598Z,58.02
2023-05-09T03:52:24.064Z,57.96
2023-05-09T03:53:25.706Z,57.98
2023-05-09T03:54:27.216Z,58.12
2023-05-09T03:55:28.899Z,57.85
2023-05-09T03:56:30.440Z,57.94
2023-05-09T03:57:34.722Z,58.06
2023-05-09T03:58:36.242Z,58.12
2023-05-09T03:59:37.766Z,58.08
2023-05-09T04:00:44.374Z,58.15
2023-05-09T04:01:45.923Z,58.13
2023-05-09T04:02:48.548Z,58.10
2023-05-09T04:03:52.104Z,58.10
2023-05-09T04:04:53.926Z,58.06
2023-05-09T04:05:55.687Z,57.91
2023-05-09T04:06:57.366Z,57.99
2023-05-09T04:07:59.324Z,57.93
2023-05-09T04:09:00.904Z,57.98
2023-05-09T04:10:02.431Z,57.88
2023-05-09T04:11:04.025Z,57.97
2023-05-09T04:12:05.920Z,58.07
2023-05-09T04:13:08.447Z,57.82
2023-05-09T04:14:10.341Z,57.99
2023-05-09T04:15:14.885Z,58.14
2023-05-09T04:16:16.622Z,58.37
2023-05-09T04:17:18.474Z,58.48
2023-05-09T04:18:22.594Z,58.60
2023-05-09T04:19:24.118Z,58.50
2023-05-09T04:20:25.876Z,58.55
2023-05-09T04:21:27.347Z,58.57
2023-05-09T04:22:28.905Z,58.26
2023-05-09T04:23:30.482Z,58.47
2023-05-09T04:24:34.505Z,58.77
2023-05-09T04:25:38.110Z,58.64
2023-05-09T04:26:40.786Z,58.71
2023-05-09T04:27:42.735Z,58.96
2023-05-09T04:28:44.255Z,58.95
2023-05-09T04:29:45.869Z,58.83
2023-05-09T04:30:47.509Z,58.85
2023-05-09T04:31:49.037Z,59.11
2023-05-09T04:32:50.953Z,58.90
2023-05-09T04:33:52.422Z,58.57
2023-05-09T04:34:53.870Z,58.71
2023-05-09T04:35:55.761Z,58.76
2023-05-09T04:36:57.322Z,58.91
2023-05-09T04:37:59.082Z,59.02
2023-05-09T04:39:00.917Z,58.78
2023-05-09T04:40:03.054Z,58.82
2023-05-09T04:41:07.202Z,58.79
2023-05-09T04:42:09.035Z,59.10
2023-05-09T04:43:13.248Z,58.82
2023-05-09T04:44:14.810Z,59.00
2023-05-09T04:45:16.438Z,58.74
2023-05-09T04:46:18.125Z,58.98
2023-05-09T04:47:19.709Z,58.79
2023-05-09T04:48:21.178Z,58.91
2023-05-09T04:49:22.633Z,58.94
2023-05-09T04:50:24.162Z,58.79
2023-05-09T04:51:26.112Z,58.87
2023-05-09T04:52:27.972Z,59.14
2023-05-09T04:53:29.656Z,59.17
2023-05-09T04:54:34.509Z,59.20
2023-05-09T04:55:36.141Z,59.00
2023-05-09T04:56:37.738Z,59.36
2023-05-09T04:57:42.677Z,59.55
2023-05-09T04:58:49.456Z,59.12
2023-05-09T04:59:53.187Z,59.31
2023-05-09T05:00:54.675Z,59.39
2023-05-09T05:01:56.206Z,59.55
2023-05-09T05:02:57.780Z,59.76
2023-05-09T05:03:59.315Z,59.38
2023-05-09T05:05:11.017Z,59.24
2023-05-09T05:06:13.372Z,59.43
2023-05-09T05:07:15.650Z,59.53
2023-05-09T05:08:20.426Z,59.82
2023-05-09T05:09:24.418Z,60.01
2023-05-09T05:10:28.364Z,59.98
2023-05-09T05:11:30.042Z,59.83
2023-05-09T05:12:31.604Z,59.67
2023-05-09T05:13:37.500Z,59.64
2023-05-09T05:14:43.671Z,59.83
2023-05-09T05:15:47.923Z,59.92
2023-05-09T05:16:54.168Z,60.11
2023-05-09T05:17:58.061Z,59.97
2023-05-09T05:18:59.686Z,59.64
2023-05-09T05:20:02.317Z,59.48
2023-05-09T05:21:04.316Z,59.42
2023-05-09T05:22:52.367Z,59.59
2023-05-09T05:23:35.677Z,59.65
2023-05-09T05:24:37.262Z,59.49
2023-05-09T05:25:55.074Z,59.97
2023-05-09T05:26:59.670Z,59.61
2023-05-09T05:28:01.240Z,58.55
2023-05-09T05:29:02.709Z,58.86
2023-05-09T05:30:04.683Z,58.91
2023-05-09T05:31:09.297Z,58.08
2023-05-09T05:32:14.013Z,57.76
2023-05-09T05:33:18.496Z,57.93
2023-05-09T05:34:19.968Z,57.92
2023-05-09T05:35:28.266Z,57.25
2023-05-09T05:36:39.018Z,56.90
2023-05-09T05:37:41.594Z,57.04
2023-05-09T05:38:43.197Z,56.47
2023-05-09T05:39:44.750Z,56.33
2023-05-09T05:40:46.326Z,56.76
2023-05-09T05:41:50.445Z,56.02
2023-05-09T05:42:52.065Z,55.89
2023-05-09T05:43:56.160Z,56.02
2023-05-09T05:44:57.769Z,55.76
2023-05-09T05:46:02.668Z,54.96
2023-05-09T05:47:07.174Z,54.60
2023-05-09T05:48:17.108Z,54.32
2023-05-09T05:49:21.482Z,54.36
2023-05-09T05:50:22.976Z,54.49
2023-05-09T05:51:26.687Z,54.19
2023-05-09T05:52:28.511Z,53.48
2023-05-09T05:53:56.468Z,53.25
2023-05-09T05:55:00.674Z,53.58
2023-05-09T05:56:06.669Z,53.66
2023-05-09T05:57:08.403Z,52.41
2023-05-09T05:58:10.275Z,51.45
2023-05-09T05:59:13.521Z,51.74
2023-05-09T06:00:24.254Z,51.12
2023-05-09T06:01:28.869Z,50.72
2023-05-09T06:02:35.015Z,50.89
2023-05-09T06:03:36.662Z,50.82
2023-05-09T06:04:43.888Z,50.80
2023-05-09T06:05:48.478Z,50.44
2023-05-09T06:06:50.652Z,50.76
2023-05-09T06:07:52.228Z,51.14
2023-05-09T06:09:04.129Z,51.28
2023-05-09T06:10:16.716Z,51.31
2023-05-09T06:11:18.793Z,51.54
2023-05-09T06:12:27.331Z,51.54
2023-05-09T06:13:29.506Z,51.75
2023-05-09T06:14:35.158Z,51.85
2023-05-09T06:15:41.154Z,52.06
2023-05-09T06:16:42.874Z,51.20
2023-05-09T06:17:47.949Z,51.43
2023-05-09T06:18:49.820Z,51.34
2023-05-09T06:19:55.771Z,51.56
2023-05-09T06:20:57.227Z,51.52
2023-05-09T06:22:01.876Z,51.21
2023-05-09T06:23:03.381Z,51.31
2023-05-09T06:24:12.171Z,51.18
2023-05-09T06:25:52.072Z,51.22
2023-05-09T06:26:56.207Z,51.46
2023-05-09T06:28:00.933Z,51.67
2023-05-09T06:29:03.171Z,51.99
2023-05-09T06:31:21.972Z,51.29
2023-05-09T06:32:27.185Z,51.32
2023-05-09T06:33:29.047Z,51.41
2023-05-09T06:34:39.056Z,51.79
2023-05-09T06:35:40.571Z,51.87
2023-05-09T06:36:46.935Z,51.55
2023-05-09T06:37:58.492Z,51.15
2023-05-09T06:39:00.262Z,50.96
2023-05-09T06:40:20.796Z,51.23
2023-05-09T06:41:22.562Z,50.68
2023-05-09T06:42:44.988Z,49.99
2023-05-09T06:43:54.150Z,49.96
2023-05-09T07:54:47.102Z,41.12
2023-05-09T07:56:16.221Z,40.37
2023-05-09T07:57:18.297Z,40.40
2023-05-09T07:58:30.394Z,40.63
2023-05-09T07:59:31.953Z,40.60
2023-05-09T08:00:42.782Z,40.50
2023-05-09T08:01:44.688Z,39.39
2023-05-09T08:02:51.191Z,39.93
2023-05-09T08:03:58.509Z,39.96
2023-05-09T08:05:16.448Z,39.34
2023-05-09T08:06:19.330Z,39.25
2023-05-09T08:07:34.663Z,39.17
2023-05-09T08:08:39.347Z,39.00
2023-05-09T08:09:45.757Z,39.10
2023-05-09T08:10:47.797Z,39.37
2023-05-09T08:11:52.402Z,38.87
2023-05-09T08:12:58.765Z,38.57
2023-05-09T08:14:08.103Z,38.75
2023-05-09T08:16:53.580Z,38.82
2023-05-09T08:17:58.216Z,37.84
2023-05-09T08:19:06.952Z,37.37
2023-05-09T08:21:32.943Z,37.87
2023-05-09T08:22:54.953Z,37.98
2023-05-09T08:24:11.532Z,37.31
2023-05-09T08:25:23.122Z,37.33
2023-05-09T08:26:27.710Z,37.67
2023-05-09T08:27:31.978Z,37.75
2023-05-09T08:28:45.726Z,37.84
2023-05-09T08:29:53.306Z,37.69
2023-05-09T08:31:04.397Z,38.25
2023-05-09T08:33:35.966Z,38.23
2023-05-09T08:34:52.263Z,36.20
2023-05-09T08:35:59.664Z,36.82
2023-05-09T08:37:11.024Z,36.75
2023-05-09T09:16:49.703Z,37.67
2023-05-09T09:17:58.951Z,38.28
2023-05-09T09:19:25.869Z,36.61
2023-05-09T09:20:34.882Z,37.20
2023-05-09T09:23:27.270Z,35.61
2023-05-09T09:24:34.567Z,35.85
2023-05-09T09:46:54.767Z,33.39
2023-05-09T09:47:57.840Z,32.85
2023-05-09T09:48:58.616Z,32.52
2023-05-09T09:50:09.906Z,32.21
2023-05-09T09:51:11.712Z,32.11
2023-05-09T09:52:23.255Z,31.38
2023-05-09T09:53:30.718Z,31.94
2023-05-09T09:54:35.413Z,32.51
2023-05-09T09:55:37.325Z,32.83
2023-05-09T09:56:47.048Z,32.85
2023-05-09T09:57:48.844Z,32.74
2023-05-09T09:58:50.455Z,32.35
2023-05-09T10:00:01.885Z,32.10
2023-05-09T10:01:11.335Z,32.24
2023-05-09T10:03:17.442Z,33.58
2023-05-09T10:04:18.934Z,31.80
2023-05-09T10:05:22.419Z,32.13
2023-05-09T10:06:23.933Z,32.75
2023-05-09T10:07:25.923Z,32.12
2023-05-09T10:08:27.813Z,32.79
2023-05-09T10:09:29.755Z,31.89
2023-05-09T10:10:33.185Z,30.23
2023-05-09T10:11:34.774Z,30.79
2023-05-09T10:12:42.501Z,29.90
2023-05-09T10:13:47.242Z,29.98
2023-05-09T10:14:48.850Z,29.99
2023-05-09T10:15:53.902Z,29.25
2023-05-09T10:16:58.470Z,29.18
2023-05-09T10:18:04.322Z,29.64
2023-05-09T10:19:08.549Z,30.97
2023-05-09T10:20:12.613Z,28.94
2023-05-09T10:21:15.420Z,28.38
2023-05-09T10:22:19.313Z,29.03
2023-05-09T10:23:22.900Z,28.89
2023-05-09T10:24:33.787Z,28.82
2023-05-09T10:25:44.029Z,28.47
2023-05-09T10:26:49.638Z,28.86
2023-05-09T10:27:54.309Z,29.22
2023-05-09T10:28:58.501Z,29.61
2023-05-09T10:30:07.410Z,29.62
2023-05-09T10:31:19.065Z,29.27
2023-05-09T10:32:42.123Z,29.30
2023-05-09T10:33:48.203Z,28.27
2023-05-09T10:34:53.405Z,28.28
2023-05-09T10:36:05.956Z,27.45
2023-05-09T10:37:08.904Z,26.90
2023-05-09T10:38:12.583Z,26.30
2023-05-09T10:39:15.275Z,25.92
2023-05-09T10:40:17.662Z,26.00
2023-05-09T10:41:21.927Z,27.50
2023-05-09T10:42:25.535Z,26.71
2023-05-09T10:43:28.056Z,27.32
2023-05-09T10:44:29.594Z,25.98
2023-05-09T10:45:31.784Z,25.97
2023-05-09T10:46:36.267Z,25.57
2023-05-09T10:47:42.810Z,25.57
2023-05-09T10:48:45.498Z,25.37
2023-05-09T10:49:49.072Z,25.16
2023-05-09T10:50:54.446Z,25.16
2023-05-09T10:51:55.997Z,25.44
2023-05-09T10:53:03.642Z,25.91
2023-05-09T10:54:15.231Z,25.65
2023-05-09T10:55:19.331Z,25.45
2023-05-09T10:56:32.702Z,24.37
2023-05-09T10:57:39.358Z,25.07
2023-05-09T10:58:50.568Z,24.30
2023-05-09T10:59:52.356Z,24.58
2023-05-09T11:00:58.528Z,25.01
2023-05-09T11:02:06.527Z,24.83
2023-05-09T11:03:08.585Z,24.68
2023-05-09T11:04:13.216Z,24.87
2023-05-09T11:05:14.782Z,24.72
2023-05-09T11:06:49.469Z,24.38
2023-05-09T11:08:27.032Z,24.68
2023-05-09T11:09:40.257Z,25.31
2023-05-09T11:10:45.930Z,25.76
2023-05-09T11:11:55.190Z,25.01
2023-05-09T11:12:58.798Z,25.13
2023-05-09T11:14:00.259Z,25.28
2023-05-09T11:15:09.074Z,24.41
2023-05-09T11:16:12.291Z,24.90
2023-05-09T11:17:27.268Z,25.50
2023-05-09T11:18:29.752Z,25.95
2023-05-09T11:19:46.461Z,24.60
2023-05-09T11:20:49.474Z,24.72
2023-05-09T11:22:04.197Z,25.40
2023-05-09T11:23:11.819Z,24.91
2023-05-09T11:24:17.406Z,25.41
2023-05-09T11:25:26.144Z,26.03
2023-05-09T11:26:30.583Z,24.07
2023-05-09T11:27:47.397Z,24.20
2023-05-09T11:28:55.171Z,24.42
2023-05-09T11:29:59.223Z,24.43
2023-05-09T11:31:10.653Z,24.45
2023-05-09T11:32:15.407Z,24.63
2023-05-09T11:33:30.119Z,24.51
2023-05-09T11:34:31.608Z,24.93
2023-05-09T11:35:37.202Z,24.80
2023-05-09T11:36:44.204Z,25.24
2023-05-09T11:37:48.161Z,25.18
2023-05-09T11:39:09.607Z,25.41
2023-05-09T11:40:13.769Z,24.84
2023-05-09T11:41:15.893Z,24.65
2023-05-09T11:42:17.708Z,24.82
2023-05-09T11:43:19.329Z,24.46
2023-05-09T11:44:23.577Z,24.58
2023-05-09T11:45:30.250Z,24.31
2023-05-09T11:46:32.292Z,23.90
2023-05-09T11:47:37.368Z,24.09
2023-05-09T11:48:40.146Z,23.41
2023-05-09T11:49:45.372Z,23.21
2023-05-09T11:50:48.279Z,23.11
2023-05-09T11:51:51.990Z,23.08
2023-05-09T11:52:54.179Z,23.39
2023-05-09T11:53:59.806Z,23.54
2023-05-09T11:55:01.716Z,24.01
2023-05-09T11:56:04.722Z,23.20
2023-05-09T11:57:07.396Z,23.12
2023-05-09T11:58:09.621Z,22.97
2023-05-09T11:59:13.334Z,23.17
2023-05-09T12:00:18.471Z,23.54
2023-05-09T12:01:20.736Z,24.25
2023-05-09T12:02:27.512Z,23.29
2023-05-09T12:03:29.630Z,22.76
2023-05-09T12:04:34.134Z,22.33
2023-05-09T12:05:39.585Z,21.87
2023-05-09T12:06:48.295Z,21.79
2023-05-09T12:07:50.397Z,22.20
2023-05-09T12:08:53.625Z,21.87
2023-05-09T12:09:55.461Z,22.09
2023-05-09T12:11:08.375Z,22.63
2023-05-09T12:12:13.698Z,22.94
2023-05-09T12:13:15.854Z,23.02
2023-05-09T12:14:34.735Z,23.08
2023-05-09T12:15:38.992Z,23.38
2023-05-09T12:16:46.113Z,22.78
2023-05-09T12:17:51.269Z,22.50
2023-05-09T12:18:59.122Z,22.25
2023-05-09T12:20:06.055Z,21.78
2023-05-09T12:21:07.787Z,21.78
2023-05-09T12:22:09.979Z,21.12
2023-05-09T12:23:14.900Z,21.44
2023-05-09T12:24:22.256Z,20.88
2023-05-09T12:25:23.961Z,20.86
2023-05-09T12:26:25.806Z,21.08
2023-05-09T12:27:29.075Z,21.14
2023-05-09T12:28:31.246Z,21.16
2023-05-09T12:29:32.947Z,20.13
2023-05-09T12:30:34.652Z,20.33
2023-05-09T12:31:37.306Z,19.65
2023-05-09T12:32:44.100Z,19.82
2023-05-09T12:33:45.935Z,19.39
2023-05-09T12:34:51.820Z,19.31
2023-05-09T12:36:05.866Z,19.11
2023-05-09T12:37:16.299Z,18.44
2023-05-09T12:38:26.242Z,18.50
2023-05-09T12:39:27.821Z,19.24
2023-05-09T12:40:29.433Z,19.17
2023-05-09T12:41:39.109Z,18.95
2023-05-09T12:42:48.550Z,18.79
2023-05-09T12:43:51.603Z,18.60
2023-05-09T12:44:54.918Z,18.07
2023-05-09T12:45:58.236Z,18.65
2023-05-09T12:47:01.832Z,17.42
2023-05-09T12:48:08.973Z,17.09
2023-05-09T12:49:22.981Z,17.37
2023-05-09T12:50:32.304Z,17.60
2023-05-09T12:51:33.794Z,17.27
2023-05-09T12:52:46.616Z,17.60
2023-05-09T12:54:03.379Z,16.80
2023-05-09T12:55:14.157Z,17.35
2023-05-09T12:56:21.124Z,17.22
2023-05-09T12:57:27.334Z,17.31
2023-05-09T12:58:33.701Z,16.79
2023-05-09T12:59:35.143Z,16.88
2023-05-09T13:00:44.522Z,17.32
2023-05-09T13:02:01.697Z,14.92
2023-05-09T13:03:04.229Z,14.03
2023-05-09T13:04:07.408Z,14.15
2023-05-09T13:05:10.973Z,14.03
2023-05-09T13:06:14.356Z,14.26
2023-05-09T13:07:16.101Z,14.90
2023-05-09T13:08:21.542Z,15.50
2023-05-09T13:09:24.505Z,15.17
2023-05-09T13:10:28.869Z,15.07
2023-05-09T13:11:30.616Z,15.58
2023-05-09T13:12:32.647Z,16.00
2023-05-09T13:13:34.126Z,15.48
2023-05-09T13:14:35.708Z,15.59
2023-05-09T13:15:40.292Z,15.58
2023-05-09T13:16:42.177Z,15.28
2023-05-09T13:17:43.846Z,15.95
2023-05-09T13:18:45.473Z,15.91
2023-05-09T13:19:46.911Z,16.50
2023-05-09T13:20:48.397Z,16.61
2023-05-09T13:21:49.861Z,16.70
2023-05-09T13:22:51.488Z,16.63
2023-05-09T13:23:56.536Z,17.07
2023-05-09T13:24:59.255Z,17.19
2023-05-09T13:26:00.724Z,17.87
2023-05-09T13:27:02.303Z,17.40
2023-05-09T13:28:04.713Z,16.62
2023-05-09T13:29:10.232Z,16.93
2023-05-09T13:30:12.733Z,16.80
2023-05-09T13:31:14.590Z,16.49
2023-05-09T13:32:16.259Z,16.42
2023-05-09T13:33:25.730Z,16.03
2023-05-09T13:34:28.059Z,16.00
2023-05-09T13:35:29.962Z,16.15
2023-05-09T13:36:32.575Z,15.73
2023-05-09T13:37:34.846Z,15.75
2023-05-09T13:38:40.956Z,15.94
2023-05-09T13:39:42.542Z,16.31
2023-05-09T13:40:43.984Z,17.25
2023-05-09T13:41:45.426Z,16.66
2023-05-09T13:42:48.972Z,16.28
2023-05-09T13:43:53.148Z,16.84
2023-05-09T13:44:54.640Z,16.50
2023-05-09T13:45:56.182Z,16.15
2023-05-09T13:47:00.189Z,16.77
2023-05-09T13:48:01.671Z,16.02
2023-05-09T13:49:03.291Z,16.02
2023-05-09T13:50:05.079Z,16.25
2023-05-09T13:51:07.875Z,16.08
2023-05-09T13:52:09.333Z,16.23
2023-05-09T13:53:10.838Z,17.00
2023-05-09T13:54:17.416Z,17.21
2023-05-09T13:55:19.009Z,16.84
2023-05-09T13:56:20.815Z,16.27
2023-05-09T13:57:22.601Z,15.90
2023-05-09T13:58:24.284Z,15.96
2023-05-09T13:59:25.935Z,15.54
2023-05-09T14:00:27.501Z,15.80
2023-05-09T14:01:29.091Z,16.66
2023-05-09T14:02:30.743Z,16.95
2023-05-09T14:03:32.279Z,17.27
2023-05-09T14:04:34.336Z,17.71
2023-05-09T14:05:35.822Z,17.28
2023-05-09T14:06:37.314Z,18.39
2023-05-09T14:07:38.832Z,17.93
2023-05-09T14:08:40.311Z,17.15
2023-05-09T14:09:42.196Z,17.39
2023-05-09T14:10:44.590Z,17.25
2023-05-09T14:11:46.056Z,17.46
2023-05-09T14:12:48.096Z,17.75
2023-05-09T14:13:49.603Z,17.35
2023-05-09T14:14:51.238Z,17.03
2023-05-09T14:15:52.912Z,16.11
2023-05-09T14:16:54.651Z,16.42
2023-05-09T14:17:57.305Z,15.73
2023-05-09T14:18:58.803Z,16.71
2023-05-09T14:20:00.371Z,16.90
2023-05-09T14:21:01.851Z,15.82
2023-05-09T14:22:04.397Z,16.40
2023-05-09T14:23:06.167Z,16.29
2023-05-09T14:24:07.928Z,16.02
2023-05-09T14:25:09.824Z,15.86
2023-05-09T14:26:11.268Z,15.38
2023-05-09T14:27:12.977Z,15.00
2023-05-09T14:28:14.663Z,15.06
2023-05-09T14:29:16.741Z,14.85
2023-05-09T14:30:18.206Z,15.12
2023-05-09T14:31:19.783Z,15.99
2023-05-09T14:32:21.233Z,15.81
2023-05-09T14:33:22.951Z,16.17
2023-05-09T14:34:24.408Z,15.73
2023-05-09T14:35:26.122Z,14.87
2023-05-09T14:36:28.677Z,15.34
2023-05-09T14:37:30.687Z,15.56
2023-05-09T14:38:33.367Z,15.15
2023-05-09T14:39:34.785Z,15.68
2023-05-09T14:40:36.386Z,15.48
2023-05-09T14:41:37.825Z,15.58
2023-05-09T14:42:39.597Z,16.61
2023-05-09T14:43:41.230Z,16.42
2023-05-09T14:44:43.169Z,16.30
2023-05-09T14:45:44.622Z,15.87
2023-05-09T14:46:46.221Z,16.26
2023-05-09T14:47:48.401Z,15.91
2023-05-09T14:48:49.817Z,16.48
2023-05-09T14:49:51.395Z,16.23
2023-05-09T14:50:56.939Z,16.01
2023-05-09T14:51:58.353Z,16.38
2023-05-09T14:53:01.240Z,16.54
2023-05-09T14:54:04.579Z,16.31
2023-05-09T14:55:07.390Z,16.54
2023-05-09T14:56:10.407Z,16.76
2023-05-09T14:57:11.931Z,16.89
2023-05-09T14:58:13.880Z,17.01
2023-05-09T14:59:15.554Z,16.67
2023-05-09T15:00:22.032Z,16.07
2023-05-09T15:01:24.263Z,17.05
2023-05-09T15:02:26.166Z,16.53
2023-05-09T15:03:28.272Z,16.89
2023-05-09T15:04:31.293Z,16.78
2023-05-09T15:05:33.024Z,16.82
2023-05-09T15:06:35.232Z,16.52
2023-05-09T15:07:36.981Z,16.94
2023-05-09T15:08:39.243Z,17.29
2023-05-09T15:09:40.940Z,16.93
2023-05-09T15:10:42.376Z,17.13
2023-05-09T15:11:48.220Z,17.72
2023-05-09T15:12:50.934Z,18.09
2023-05-09T15:13:53.360Z,17.69
2023-05-09T15:14:55.682Z,17.59
2023-05-09T15:15:57.392Z,17.68
2023-05-09T15:17:01.747Z,17.55
2023-05-09T15:18:03.375Z,17.27
2023-05-09T15:19:05.807Z,17.66
2023-05-09T15:20:07.850Z,18.42
2023-05-09T15:21:10.193Z,17.98
2023-05-09T15:22:11.967Z,18.48
2023-05-09T15:23:13.479Z,18.71
2023-05-09T15:24:15.008Z,18.22
2023-05-09T15:25:16.805Z,18.18
2023-05-09T15:26:18.234Z,18.53
2023-05-09T15:27:19.999Z,18.64
2023-05-09T15:28:21.492Z,18.57
2023-05-09T15:29:22.926Z,18.76
2023-05-09T15:30:24.373Z,19.20
2023-05-09T15:31:26.061Z,19.03
2023-05-09T15:32:28.650Z,19.29
2023-05-09T15:33:30.157Z,19.23
2023-05-09T15:34:31.921Z,20.01
2023-05-09T15:35:33.634Z,20.15
2023-05-09T15:36:35.036Z,20.46
2023-05-09T15:37:37.022Z,20.26
2023-05-09T15:38:38.499Z,20.45
2023-05-09T15:39:45.474Z,20.55
2023-05-09T15:40:47.741Z,20.57
2023-05-09T15:41:49.425Z,20.41
2023-05-09T15:42:51.170Z,20.51
2023-05-09T15:43:52.801Z,20.67
2023-05-09T15:44:54.307Z,21.06
2023-05-09T15:45:55.785Z,20.92
2023-05-09T15:46:58.867Z,21.43
2023-05-09T15:48:00.573Z,21.85
2023-05-09T15:49:02.182Z,22.11
2023-05-09T15:50:03.902Z,22.00
2023-05-09T15:51:05.632Z,22.62
2023-05-09T15:52:08.245Z,22.35
2023-05-09T15:53:09.876Z,22.12
2023-05-09T15:54:11.378Z,22.20
2023-05-09T15:55:13.211Z,22.52
2023-05-09T15:56:14.870Z,22.20
2023-05-09T15:57:17.895Z,21.16
2023-05-09T15:58:19.496Z,21.37
2023-05-09T15:59:21.171Z,21.24
2023-05-09T16:00:23.348Z,21.64
2023-05-09T16:01:26.532Z,21.71
2023-05-09T16:02:28.921Z,21.51
2023-05-09T16:03:33.848Z,21.34
2023-05-09T16:04:36.762Z,21.64
2023-05-09T16:05:40.818Z,21.58
2023-05-09T16:06:42.632Z,21.18
2023-05-09T16:07:46.291Z,21.53
2023-05-09T16:08:47.774Z,21.92
2023-05-09T16:09:49.289Z,21.52
2023-05-09T16:10:51.868Z,21.26